createdAt,value
2022-09-22T00:01:29.965Z,7.18
2022-09-22T00:04:03.694Z,6.32
2022-09-22T00:06:37.239Z,6.80
2022-09-22T00:09:08.673Z,6.90
2022-09-22T00:11:40.248Z,6.65
2022-09-22T00:14:26.508Z,6.82
2022-09-22T00:17:01.039Z,6.03
2022-09-22T00:19:34.902Z,6.82
2022-09-22T00:22:03.158Z,5.80
2022-09-22T00:24:31.301Z,6.72
2022-09-22T00:26:59.350Z,6.90
2022-09-22T00:29:29.181Z,6.10
2022-09-22T00:31:57.554Z,6.30
2022-09-22T00:34:27.245Z,6.22
2022-09-22T00:36:54.642Z,6.32
2022-09-22T00:39:21.821Z,5.18
2022-09-22T00:41:52.563Z,5.55
2022-09-22T00:44:41.729Z,6.82
2022-09-22T00:47:34.766Z,7.40
2022-09-22T00:50:22.085Z,7.00
2022-09-22T00:52:51.186Z,6.53
2022-09-22T00:55:46.983Z,7.22
2022-09-22T00:58:22.820Z,7.70
2022-09-22T01:00:50.090Z,7.35
2022-09-22T01:03:27.584Z,7.68
2022-09-22T01:06:02.912Z,7.75
2022-09-22T01:08:31.454Z,7.20
2022-09-22T01:10:59.529Z,7.53
2022-09-22T01:13:35.169Z,8.45
2022-09-22T01:16:20.832Z,7.50
2022-09-22T01:19:34.238Z,7.28
2022-09-22T01:22:48.517Z,7.07
2022-09-22T01:25:47.091Z,6.97
2022-09-22T01:28:54.188Z,7.32
2022-09-22T01:31:35.999Z,7.03
2022-09-22T01:34:31.838Z,7.10
2022-09-22T01:37:32.361Z,7.20
2022-09-22T01:40:14.192Z,6.70
2022-09-22T01:43:12.172Z,7.22
2022-09-22T01:45:44.521Z,6.47
2022-09-22T01:48:27.819Z,7.22
2022-09-22T01:51:04.427Z,8.60
2022-09-22T01:53:39.938Z,6.72
2022-09-22T01:56:11.089Z,7.65
2022-09-22T01:58:49.587Z,8.43
2022-09-22T02:01:22.556Z,9.23
2022-09-22T02:03:55.828Z,7.70
2022-09-22T02:06:37.401Z,8.80
2022-09-22T02:09:10.567Z,8.73
2022-09-22T02:11:38.478Z,8.18
2022-09-22T02:14:06.998Z,8.48
2022-09-22T02:16:34.957Z,8.85
2022-09-22T02:19:36.224Z,8.88
2022-09-22T02:22:05.541Z,7.50
2022-09-22T02:24:37.807Z,9.60
2022-09-22T02:27:20.559Z,7.75
2022-09-22T02:29:54.947Z,8.93
2022-09-22T02:32:23.152Z,6.95
2022-09-22T02:34:50.437Z,7.75
2022-09-22T02:37:37.134Z,7.03
2022-09-22T02:40:20.745Z,7.82
2022-09-22T02:43:03.518Z,6.68
2022-09-22T02:45:58.343Z,6.93
2022-09-22T02:48:31.047Z,6.70
2022-09-22T02:50:58.361Z,5.95
2022-09-22T02:53:25.188Z,6.22
2022-09-22T02:55:52.125Z,5.93
2022-09-22T02:58:19.244Z,6.32
2022-09-22T03:00:46.069Z,6.78
2022-09-22T03:03:13.004Z,7.20
2022-09-22T03:05:39.933Z,6.20
2022-09-22T03:08:07.078Z,8.70
2022-09-22T03:10:34.201Z,7.00
2022-09-22T03:13:17.545Z,7.65
2022-09-22T03:15:45.962Z,9.55
2022-09-22T03:18:13.941Z,6.53
2022-09-22T03:20:41.118Z,6.57
2022-09-22T03:23:08.293Z,8.68
2022-09-22T03:25:35.276Z,8.13
2022-09-22T03:28:02.890Z,7.32
2022-09-22T03:30:30.115Z,9.07
2022-09-22T03:32:57.683Z,6.38
2022-09-22T03:35:24.623Z,7.03
2022-09-22T03:37:51.549Z,6.38
2022-09-22T03:40:18.606Z,5.32
2022-09-22T03:42:45.539Z,6.03
2022-09-22T03:45:12.721Z,5.68
2022-09-22T03:47:39.771Z,5.40
2022-09-22T03:50:07.457Z,5.85
2022-09-22T03:52:59.606Z,5.65
2022-09-22T03:55:26.935Z,5.30
2022-09-22T03:57:53.775Z,6.57
2022-09-22T04:00:20.784Z,6.72
2022-09-22T04:02:47.616Z,5.38
2022-09-22T04:05:14.699Z,5.70
2022-09-22T04:07:42.143Z,5.68
2022-09-22T04:10:09.157Z,5.32
2022-09-22T04:12:37.241Z,5.05
2022-09-22T04:15:05.310Z,5.45
2022-09-22T04:17:32.297Z,5.88
2022-09-22T04:19:59.451Z,6.28
2022-09-22T04:22:26.314Z,6.10
2022-09-22T04:24:54.157Z,5.00
2022-09-22T04:27:21.496Z,5.97
2022-09-22T04:29:49.084Z,5.05
2022-09-22T04:32:17.933Z,6.00
2022-09-22T04:34:45.138Z,5.55
2022-09-22T04:37:15.828Z,6.45
2022-09-22T04:39:42.758Z,6.25
2022-09-22T04:42:09.713Z,5.40
2022-09-22T04:44:36.716Z,5.50
2022-09-22T04:47:04.608Z,6.43
2022-09-22T04:49:31.476Z,6.63
2022-09-22T04:51:58.965Z,6.32
2022-09-22T04:54:25.824Z,6.25
2022-09-22T04:56:52.645Z,6.95
2022-09-22T04:59:19.547Z,6.97
2022-09-22T05:01:46.541Z,6.47
2022-09-22T05:04:13.639Z,6.38
2022-09-22T05:06:41.656Z,6.65
2022-09-22T05:09:08.540Z,7.35
2022-09-22T05:11:35.480Z,7.63
2022-09-22T05:14:02.600Z,7.18
2022-09-22T05:16:31.282Z,7.95
2022-09-22T05:18:58.368Z,7.60
2022-09-22T05:21:25.302Z,6.80
2022-09-22T05:23:52.279Z,6.90
2022-09-22T05:26:19.306Z,7.07
2022-09-22T05:28:46.172Z,6.65
2022-09-22T05:31:13.032Z,7.35
2022-09-22T05:33:40.048Z,7.80
2022-09-22T05:36:07.155Z,7.65
2022-09-22T05:38:34.069Z,6.85
2022-09-22T05:41:01.555Z,7.93
2022-09-22T05:43:28.568Z,7.75
2022-09-22T05:45:55.659Z,7.47
2022-09-22T05:48:25.427Z,7.32
2022-09-22T05:50:54.562Z,7.60
2022-09-22T05:53:21.370Z,7.20
2022-09-22T05:55:49.357Z,7.50
2022-09-22T05:58:16.426Z,9.02
2022-09-22T06:00:43.524Z,8.38
2022-09-22T06:03:10.631Z,7.13
2022-09-22T06:05:39.511Z,7.70
2022-09-22T06:08:06.978Z,7.80
2022-09-22T06:10:37.543Z,7.13
2022-09-22T06:13:07.518Z,8.10
2022-09-22T06:15:35.997Z,7.80
2022-09-22T06:18:07.196Z,8.35
2022-09-22T06:20:35.772Z,7.65
2022-09-22T06:23:03.125Z,7.65
2022-09-22T06:25:30.649Z,9.25
2022-09-22T06:28:09.778Z,15.85
2022-09-22T06:30:40.921Z,10.85
2022-09-22T06:33:10.567Z,9.38
2022-09-22T06:35:39.981Z,7.03
2022-09-22T06:38:09.442Z,8.70
2022-09-22T06:40:36.714Z,10.85
2022-09-22T06:43:10.095Z,8.65
2022-09-22T06:45:37.323Z,8.23
2022-09-22T06:48:09.510Z,7.55
2022-09-22T06:50:38.205Z,7.15
2022-09-22T06:53:11.682Z,8.32
2022-09-22T06:55:41.514Z,7.93
2022-09-22T06:58:09.459Z,8.55
2022-09-22T07:00:37.075Z,9.07
2022-09-22T07:03:08.665Z,8.90
2022-09-22T07:05:39.468Z,10.05
2022-09-22T07:08:06.956Z,9.55
2022-09-22T07:10:38.172Z,8.45
2022-09-22T07:13:06.330Z,11.00
2022-09-22T07:15:35.615Z,9.48
2022-09-22T07:18:04.343Z,9.98
2022-09-22T07:20:35.700Z,10.45
2022-09-22T07:23:02.959Z,10.55
2022-09-22T07:25:33.064Z,10.13
2022-09-22T07:28:03.948Z,10.20
2022-09-22T07:30:32.002Z,9.68
2022-09-22T07:33:00.580Z,10.30
2022-09-22T07:35:28.659Z,9.90
2022-09-22T07:38:00.777Z,10.50
2022-09-22T07:40:27.623Z,11.13
2022-09-22T07:42:54.488Z,10.95
2022-09-22T07:45:23.514Z,10.98
2022-09-22T07:48:08.996Z,10.82
2022-09-22T07:53:04.030Z,11.70
2022-09-22T07:55:30.869Z,10.85
2022-09-22T07:58:00.521Z,11.10
2022-09-22T08:00:33.344Z,11.13
2022-09-22T08:03:01.228Z,10.50
2022-09-22T08:05:29.675Z,9.90
2022-09-22T08:07:58.360Z,11.35
2022-09-22T08:10:26.227Z,10.00
2022-09-22T08:12:58.049Z,10.18
2022-09-22T08:15:27.393Z,10.05
2022-09-22T08:17:58.478Z,10.32
2022-09-22T08:20:29.971Z,10.75
2022-09-22T08:23:03.051Z,9.73
2022-09-22T08:25:30.728Z,11.35
2022-09-22T08:28:01.003Z,10.80
2022-09-22T08:30:27.816Z,9.68
2022-09-22T08:32:54.611Z,10.45
2022-09-22T08:35:21.563Z,10.18
2022-09-22T08:37:50.720Z,9.60
2022-09-22T08:40:23.759Z,9.60
2022-09-22T08:42:54.434Z,9.52
2022-09-22T08:45:34.611Z,9.23
2022-09-22T08:48:40.922Z,9.35
2022-09-22T08:51:55.504Z,8.52
2022-09-22T08:54:31.579Z,7.50
2022-09-22T08:57:03.159Z,6.88
2022-09-22T08:59:48.880Z,7.70
2022-09-22T09:02:59.355Z,6.50
2022-09-22T09:06:04.515Z,6.00
2022-09-22T09:08:43.504Z,4.97
2022-09-22T09:11:49.211Z,5.55
2022-09-22T09:15:17.463Z,5.35
2022-09-22T09:17:48.176Z,5.75
2022-09-22T09:20:48.153Z,5.55
2022-09-22T09:25:22.156Z,5.38
2022-09-22T09:26:18.094Z,5.07
2022-09-22T09:28:53.447Z,4.55
2022-09-22T09:31:51.983Z,3.15
2022-09-22T09:34:25.320Z,2.88
2022-09-22T09:37:10.228Z,3.28
2022-09-22T09:39:40.892Z,3.10
2022-09-22T09:42:40.031Z,3.50
2022-09-22T09:45:17.512Z,3.03
2022-09-22T09:48:26.684Z,2.88
2022-09-22T09:50:53.550Z,2.38
2022-09-22T09:53:46.895Z,2.53
2022-09-22T09:56:30.294Z,2.38
2022-09-22T09:59:31.078Z,2.22
2022-09-22T10:01:58.474Z,1.80
2022-09-22T10:04:35.979Z,2.30
2022-09-22T10:12:51.385Z,1.40
2022-09-22T10:15:26.635Z,1.75
2022-09-22T10:17:53.516Z,1.55
2022-09-22T10:20:28.165Z,1.60
2022-09-22T10:22:56.557Z,1.20
2022-09-22T10:25:33.962Z,1.45
2022-09-22T10:28:15.448Z,1.40
2022-09-22T10:30:45.158Z,1.48
2022-09-22T10:33:19.964Z,1.80
2022-09-22T10:36:11.047Z,1.73
2022-09-22T10:38:43.135Z,1.60
2022-09-22T10:41:20.414Z,1.65
2022-09-22T10:43:52.139Z,1.35
2022-09-22T10:46:49.994Z,1.00
2022-09-22T10:49:40.624Z,0.70
2022-09-22T10:52:24.130Z,1.05
2022-09-22T10:55:19.662Z,1.80
2022-09-22T10:58:06.991Z,1.02
2022-09-22T11:00:39.122Z,0.77
2022-09-22T11:03:49.009Z,0.70
2022-09-22T11:06:54.370Z,0.77
2022-09-22T11:09:59.053Z,0.90
2022-09-22T11:12:58.898Z,0.80
2022-09-22T11:15:59.100Z,0.90
2022-09-22T11:18:39.940Z,0.80
2022-09-22T11:21:54.428Z,0.70
2022-09-22T11:24:41.405Z,0.52
2022-09-22T11:27:38.965Z,0.60
2022-09-22T11:30:21.596Z,0.73
2022-09-22T11:32:57.691Z,0.70
2022-09-22T11:35:49.697Z,0.82
2022-09-22T11:39:15.994Z,0.70
2022-09-22T11:42:20.264Z,0.60
2022-09-22T11:45:10.409Z,0.68
2022-09-22T11:48:02.511Z,0.88
2022-09-22T11:50:39.605Z,0.80
2022-09-22T11:53:41.758Z,0.60
2022-09-22T11:56:35.478Z,0.60
2022-09-22T11:59:25.988Z,0.50
2022-09-22T12:01:57.103Z,0.50
2022-09-22T12:04:49.481Z,0.80
2022-09-22T12:07:27.031Z,0.50
2022-09-22T12:10:01.938Z,0.60
2022-09-22T12:12:32.323Z,0.50
2022-09-22T12:15:25.069Z,0.60
2022-09-22T12:18:02.024Z,0.88
2022-09-22T12:20:48.120Z,1.10
2022-09-22T12:23:40.620Z,0.90
2022-09-22T12:26:11.808Z,0.80
2022-09-22T12:28:43.654Z,0.77
2022-09-22T12:31:18.761Z,0.60
2022-09-22T12:33:50.475Z,1.02
2022-09-22T12:36:37.085Z,0.80
2022-09-22T12:39:24.158Z,0.73
2022-09-22T12:42:01.601Z,0.85
2022-09-22T12:45:01.786Z,0.90
2022-09-22T12:47:40.777Z,0.90
2022-09-22T12:50:36.439Z,0.85
2022-09-22T12:53:21.701Z,0.65
2022-09-22T12:58:23.752Z,0.77
2022-09-22T13:00:56.742Z,1.23
2022-09-22T13:03:26.701Z,0.60
2022-09-22T13:05:55.902Z,0.80
2022-09-22T13:08:31.163Z,0.75
2022-09-22T13:11:09.479Z,0.80
2022-09-22T13:13:39.660Z,0.70
2022-09-22T13:16:15.233Z,0.93
2022-09-22T13:18:45.398Z,0.88
2022-09-22T13:21:12.228Z,0.65
2022-09-22T13:24:01.457Z,0.80
2022-09-22T13:26:34.454Z,0.60
2022-09-22T13:29:36.647Z,0.80
2022-09-22T13:32:21.614Z,0.82
2022-09-22T13:34:49.222Z,0.80
2022-09-22T13:37:21.848Z,0.90
2022-09-22T13:39:53.493Z,0.98
2022-09-22T13:42:31.306Z,1.00
2022-09-22T13:45:16.624Z,0.60
2022-09-22T13:50:22.094Z,0.93
2022-09-22T13:52:51.451Z,0.75
2022-09-22T13:55:37.339Z,0.90
2022-09-22T13:58:12.158Z,0.80
2022-09-22T14:01:15.279Z,0.75
2022-09-22T14:03:44.056Z,0.50
2022-09-22T14:06:25.912Z,0.68
2022-09-22T14:08:55.510Z,0.80
2022-09-22T14:11:30.989Z,0.57
2022-09-22T14:14:02.593Z,0.35
2022-09-22T14:16:49.550Z,0.70
2022-09-22T14:19:41.792Z,0.60
2022-09-22T14:22:24.795Z,0.70
2022-09-22T14:24:59.636Z,0.63
2022-09-22T14:27:58.697Z,0.57
2022-09-22T14:30:30.274Z,0.50
2022-09-22T14:33:01.580Z,0.52
2022-09-22T14:35:37.116Z,0.35
2022-09-22T14:38:16.316Z,0.75
2022-09-22T14:40:58.320Z,0.65
2022-09-22T14:43:42.047Z,0.73
2022-09-22T14:46:37.384Z,0.70
2022-09-22T14:49:41.996Z,0.68
2022-09-22T14:52:28.704Z,0.68
2022-09-22T14:55:02.960Z,0.50
2022-09-22T14:57:29.952Z,0.45
2022-09-22T15:00:18.640Z,0.70
2022-09-22T15:02:55.607Z,0.80
2022-09-22T15:05:31.240Z,0.60
2022-09-22T15:08:00.675Z,0.47
2022-09-22T15:10:31.382Z,0.75
2022-09-22T15:13:26.790Z,0.70
2022-09-22T15:15:53.780Z,0.40
2022-09-22T15:18:20.647Z,0.60
2022-09-22T15:20:57.246Z,0.60
2022-09-22T15:23:35.651Z,0.70
2022-09-22T15:26:03.712Z,0.40
2022-09-22T15:28:37.906Z,0.68
2022-09-22T15:31:05.932Z,0.53
2022-09-22T15:33:32.972Z,0.35
2022-09-22T15:36:12.913Z,0.40
2022-09-22T15:38:40.394Z,0.50
2022-09-22T15:41:10.725Z,0.65
2022-09-22T15:43:40.058Z,0.40
2022-09-22T15:46:26.564Z,0.60
2022-09-22T15:48:57.332Z,0.30
2022-09-22T15:51:24.509Z,0.50
2022-09-22T15:53:51.683Z,0.52
2022-09-22T15:56:22.332Z,0.50
2022-09-22T15:58:52.006Z,0.47
2022-09-22T16:01:19.058Z,0.50
2022-09-22T16:03:46.188Z,0.52
2022-09-22T16:06:16.705Z,0.50
2022-09-22T16:08:51.797Z,0.50
2022-09-22T16:11:29.408Z,0.30
2022-09-22T16:14:03.463Z,0.50
2022-09-22T16:16:32.954Z,1.53
2022-09-22T16:19:00.481Z,0.50
2022-09-22T16:21:38.622Z,0.40
2022-09-22T16:24:10.224Z,0.80
2022-09-22T16:26:39.295Z,0.57
2022-09-22T16:29:08.066Z,0.80
2022-09-22T16:31:37.078Z,0.50
2022-09-22T16:34:06.897Z,0.60
2022-09-22T16:36:36.139Z,0.50
2022-09-22T16:39:04.432Z,0.60
2022-09-22T16:41:34.707Z,0.77
2022-09-22T16:44:02.195Z,0.50
2022-09-22T16:46:31.671Z,0.80
2022-09-22T16:49:10.667Z,0.70
2022-09-22T16:51:41.915Z,0.60
2022-09-22T16:54:13.975Z,0.55
2022-09-22T16:56:43.715Z,0.80
2022-09-22T16:59:13.253Z,0.70
2022-09-22T17:01:40.094Z,0.70
2022-09-22T17:04:08.506Z,1.13
2022-09-22T17:06:38.234Z,0.60
2022-09-22T17:09:07.028Z,0.65
2022-09-22T17:11:39.176Z,0.65
2022-09-22T17:14:15.587Z,0.88
2022-09-22T17:16:52.066Z,0.93
2022-09-22T17:19:22.733Z,0.95
2022-09-22T17:21:53.927Z,0.98
2022-09-22T17:24:21.777Z,0.82
2022-09-22T17:26:55.792Z,1.00
2022-09-22T17:29:31.294Z,0.77
2022-09-22T17:32:05.689Z,0.90
2022-09-22T17:34:34.606Z,0.95
2022-09-22T17:37:03.056Z,0.98
2022-09-22T17:39:31.867Z,1.10
2022-09-22T17:41:59.396Z,0.98
2022-09-22T17:44:28.339Z,1.05
2022-09-22T17:47:14.264Z,1.13
2022-09-22T17:50:00.180Z,1.08
2022-09-22T17:52:33.354Z,1.30
2022-09-22T17:55:08.322Z,1.20
2022-09-22T17:57:43.416Z,1.00
2022-09-22T18:00:22.881Z,1.33
2022-09-22T18:02:53.049Z,1.25
2022-09-22T18:05:27.027Z,1.13
2022-09-22T18:07:57.726Z,1.13
2022-09-22T18:10:32.161Z,1.25
2022-09-22T18:13:00.586Z,1.20
2022-09-22T18:15:28.070Z,1.30
2022-09-22T18:17:57.823Z,1.30
2022-09-22T18:20:27.360Z,1.67
2022-09-22T18:22:57.722Z,2.08
2022-09-22T18:25:25.478Z,1.67
2022-09-22T18:27:53.501Z,1.42
2022-09-22T18:30:20.920Z,1.48
2022-09-22T18:32:48.904Z,1.50
2022-09-22T18:35:16.763Z,1.80
2022-09-22T18:37:44.068Z,2.15
2022-09-22T18:40:12.433Z,2.15
2022-09-22T18:42:41.401Z,1.80
2022-09-22T18:45:11.040Z,2.03
2022-09-22T18:47:41.695Z,2.40
2022-09-22T18:50:11.003Z,2.10
2022-09-22T18:52:41.418Z,2.10
2022-09-22T18:55:09.472Z,1.88
2022-09-22T18:57:36.600Z,1.70
2022-09-22T19:00:05.200Z,1.65
2022-09-22T19:02:32.287Z,1.55
2022-09-22T19:04:59.253Z,1.45
2022-09-22T19:07:41.878Z,2.53
2022-09-22T19:10:13.027Z,1.60
2022-09-22T19:12:40.488Z,1.60
2022-09-22T19:15:18.782Z,1.45
2022-09-22T19:17:49.136Z,1.75
2022-09-22T19:20:26.382Z,1.60
2022-09-22T19:22:53.669Z,1.60
2022-09-22T19:25:22.379Z,1.70
2022-09-22T19:27:52.481Z,1.80
2022-09-22T19:30:23.317Z,1.80
2022-09-22T19:32:52.784Z,1.80
2022-09-22T19:35:20.651Z,1.60
2022-09-22T19:37:48.068Z,2.00
2022-09-22T19:40:18.671Z,1.92
2022-09-22T19:42:46.978Z,2.10
2022-09-22T19:45:14.528Z,1.80
2022-09-22T19:47:41.680Z,2.63
2022-09-22T19:50:09.281Z,2.63
2022-09-22T19:52:37.684Z,2.70
2022-09-22T19:55:11.570Z,2.58
2022-09-22T19:57:41.569Z,2.80
2022-09-22T20:00:17.646Z,2.70
2022-09-22T20:02:45.122Z,2.20
2022-09-22T20:11:39.650Z,3.65
2022-09-22T20:14:22.564Z,3.40
2022-09-22T20:17:08.032Z,3.47
2022-09-22T20:19:40.040Z,3.63
2022-09-22T20:22:26.197Z,3.45
2022-09-22T20:24:57.418Z,3.38
2022-09-22T20:27:35.934Z,3.35
2022-09-22T20:30:04.168Z,3.45
2022-09-22T20:32:32.113Z,3.05
2022-09-22T20:34:59.090Z,3.00
2022-09-22T20:37:26.028Z,3.10
2022-09-22T20:39:53.044Z,2.65
2022-09-22T20:42:20.143Z,3.00
2022-09-22T20:44:47.175Z,3.40
2022-09-22T20:47:21.183Z,3.20
2022-09-22T20:49:51.537Z,3.40
2022-09-22T20:52:20.465Z,3.53
2022-09-22T20:54:48.385Z,3.35
2022-09-22T20:57:16.118Z,3.67
2022-09-22T20:59:46.512Z,3.80
2022-09-22T21:02:15.037Z,3.60
2022-09-22T21:04:42.523Z,3.08
2022-09-22T21:07:11.192Z,3.63
2022-09-22T21:09:56.870Z,3.42
2022-09-22T21:12:30.734Z,4.25
2022-09-22T21:14:58.699Z,3.90
2022-09-22T21:17:27.778Z,3.42
2022-09-22T21:19:57.664Z,3.67
2022-09-22T21:22:28.027Z,3.92
2022-09-22T21:24:55.306Z,4.72
2022-09-22T21:27:22.558Z,4.22
2022-09-22T21:29:49.470Z,4.53
2022-09-22T21:32:17.195Z,4.57
2022-09-22T21:34:44.087Z,4.90
2022-09-22T21:37:11.067Z,4.97
2022-09-22T21:39:38.051Z,4.10
2022-09-22T21:42:05.013Z,4.35
2022-09-22T21:44:31.980Z,3.88
2022-09-22T21:46:59.365Z,3.75
2022-09-22T21:49:29.863Z,4.03
2022-09-22T21:51:56.884Z,4.45
2022-09-22T21:54:23.793Z,4.40
2022-09-22T21:56:50.657Z,4.10
2022-09-22T21:59:17.804Z,3.72
2022-09-22T22:01:45.175Z,4.03
2022-09-22T22:04:17.605Z,3.67
2022-09-22T22:06:46.338Z,3.50
2022-09-22T22:09:17.445Z,3.60
2022-09-22T22:11:49.329Z,3.55
2022-09-22T22:14:19.611Z,3.83
2022-09-22T22:16:53.041Z,3.70
2022-09-22T22:19:24.761Z,3.70
2022-09-22T22:21:52.573Z,3.50
2022-09-22T22:24:25.827Z,3.67
2022-09-22T22:26:57.407Z,3.35
2022-09-22T22:29:27.326Z,4.00
2022-09-22T22:31:54.505Z,3.90
2022-09-22T22:34:27.663Z,3.38
2022-09-22T22:36:56.097Z,3.45
2022-09-22T22:39:22.947Z,4.20
2022-09-22T22:41:50.166Z,4.13
2022-09-22T22:44:17.895Z,4.38
2022-09-22T22:46:45.915Z,4.15
2022-09-22T22:49:13.133Z,4.38
2022-09-22T22:51:43.170Z,4.18
2022-09-22T22:54:11.985Z,4.78
2022-09-22T22:56:43.232Z,4.30
2022-09-22T22:59:12.112Z,4.53
2022-09-22T23:01:40.452Z,4.40
2022-09-22T23:04:10.825Z,4.03
2022-09-22T23:06:43.700Z,4.57
2022-09-22T23:09:15.830Z,4.55
2022-09-22T23:11:43.843Z,4.47
2022-09-22T23:14:12.776Z,4.47
2022-09-22T23:16:44.015Z,3.95
2022-09-22T23:19:17.353Z,4.05
2022-09-22T23:21:45.342Z,3.70
2022-09-22T23:24:18.979Z,3.47
2022-09-22T23:26:47.092Z,3.20
2022-09-22T23:29:14.346Z,3.33
2022-09-22T23:31:41.417Z,3.92
2022-09-22T23:34:08.313Z,4.07
2022-09-22T23:36:35.237Z,3.55
2022-09-22T23:39:06.072Z,3.20
2022-09-22T23:41:36.177Z,3.65
2022-09-22T23:44:06.269Z,3.50
2022-09-22T23:46:33.911Z,3.88
2022-09-22T23:49:01.226Z,3.55
2022-09-22T23:51:28.433Z,3.65
2022-09-22T23:53:56.353Z,3.80
2022-09-22T23:56:24.146Z,3.60
2022-09-22T23:58:51.803Z,3.58
